Terminal Aerodrome Forecast
Issued by NWS

Home | Current Version | Previous Version | Text Only | Print | Product List | Glossary On
Versions: 1 2 3 4 5 6 7 8 9 10 11 12 13 14 15 16 17 18 19 20 21 22 23 24 25 26
000
FTUS46 KOTX 291139
TAFPUW
TAF
KPUW 291139Z 2912/3012 09013KT P6SM SCT250
     FM292000 16005KT P6SM FEW070 SCT250
     FM300300 10003KT P6SM FEW080 BKN200
     FM300700 12005KT P6SM -SHRA BKN080 OVC100=

USA.gov is the U.S. government's official web portal to all federal, state and local government web resources and services.